Time;durP1;ratioP1;P1;durP2;ratioP2;P2;SDS_P1;SDS_P2;PMS_P1;PMS_P2;Temp;Humidity;BMP_temperature;BMP_pressure;BME280_temperature;BME280_humidity;BME280_pressure;Samples;Min_cycle;Max_cycle;Signal;HPM_P1;HPM_P2
2021/09/21 00:01:59;;;;;;;12.13;5.35;;;14.30;31.60;;;;;;4975330;28;20412;-76
2021/09/21 00:04:27;;;;;;;8.05;4.97;;;14.30;30.70;;;;;;4994736;28;20771;-78
2021/09/21 00:06:56;;;;;;;6.38;5.05;;;14.20;30.50;;;;;;4998140;28;20405;-78
2021/09/21 00:09:21;;;;;;;9.98;5.50;;;14.30;30.10;;;;;;4995593;28;20399;-75
2021/09/21 00:11:47;;;;;;;7.50;5.30;;;14.30;30.30;;;;;;4986619;28;20401;-75
2021/09/21 00:14:13;;;;;;;9.18;4.80;;;14.40;29.70;;;;;;4977248;28;20404;-74
2021/09/21 00:16:39;;;;;;;7.23;5.30;;;14.30;30.00;;;;;;4994924;28;20484;-75
2021/09/21 00:19:04;;;;;;;9.52;5.30;;;14.30;30.20;;;;;;4992924;28;20409;-74
2021/09/21 00:21:30;;;;;;;10.90;5.32;;;14.40;30.10;;;;;;4994553;28;20387;-77
2021/09/21 00:23:55;;;;;;;7.97;4.83;;;14.40;29.80;;;;;;4977981;28;20404;-75
2021/09/21 00:26:21;;;;;;;6.73;5.67;;;14.40;30.00;;;;;;4975136;28;20411;-76
2021/09/21 00:28:47;;;;;;;8.77;5.60;;;14.30;30.10;;;;;;4974596;28;20888;-77
2021/09/21 00:31:14;;;;;;;7.25;5.30;;;14.30;30.40;;;;;;4984675;28;20410;-77
2021/09/21 00:34:04;;;;;;;10.35;5.72;;;14.20;30.90;;;;;;4983702;28;20407;-77
2021/09/21 00:36:30;;;;;;;8.05;5.72;;;14.20;31.10;;;;;;4978972;28;20404;-77
2021/09/21 00:38:56;;;;;;;8.85;5.30;;;14.20;30.80;;;;;;4975093;28;20487;-76
2021/09/21 00:41:21;;;;;;;10.93;5.35;;;14.20;30.90;;;;;;4977323;28;20952;-76
2021/09/21 00:43:47;;;;;;;9.07;5.65;;;14.10;31.20;;;;;;4982216;28;20412;-76
2021/09/21 00:46:13;;;;;;;9.43;5.72;;;14.10;31.40;;;;;;4975467;28;20901;-77
2021/09/21 00:48:38;;;;;;;9.23;5.20;;;14.10;31.40;;;;;;4974759;28;20404;-77
2021/09/21 00:51:04;;;;;;;7.57;5.60;;;14.10;32.00;;;;;;4975064;28;20397;-77
2021/09/21 00:53:31;;;;;;;10.20;5.68;;;14.00;32.30;;;;;;4974865;28;20400;-77
2021/09/21 00:55:57;;;;;;;12.48;6.15;;;14.10;31.90;;;;;;4973728;28;20400;-78
2021/09/21 00:58:22;;;;;;;10.68;6.07;;;14.10;32.20;;;;;;4974111;28;20471;-78
2021/09/21 01:00:48;;;;;;;8.32;5.40;;;14.00;31.90;;;;;;4974512;28;20459;-77
2021/09/21 01:03:16;;;;;;;6.60;5.40;;;14.00;32.00;;;;;;4974155;28;20427;-77
2021/09/21 01:05:41;;;;;;;6.57;5.60;;;14.10;32.00;;;;;;4974721;28;20472;-77
2021/09/21 01:08:07;;;;;;;11.47;6.10;;;14.10;31.60;;;;;;4995888;28;20437;-77
2021/09/21 01:10:33;;;;;;;7.43;5.68;;;14.10;31.70;;;;;;5000729;28;20405;-77
2021/09/21 01:12:59;;;;;;;11.18;6.47;;;14.10;31.70;;;;;;4993286;28;20392;-78
2021/09/21 01:15:25;;;;;;;8.48;5.60;;;14.00;32.40;;;;;;4974210;28;20422;-78
2021/09/21 01:17:51;;;;;;;10.80;5.43;;;14.00;32.00;;;;;;4973894;28;20397;-77
2021/09/21 01:20:18;;;;;;;8.83;5.20;;;14.00;32.00;;;;;;4988796;28;20500;-78
2021/09/21 01:22:44;;;;;;;8.15;6.00;;;14.10;32.20;;;;;;5012180;28;20388;-76
2021/09/21 01:25:11;;;;;;;6.13;5.50;;;14.10;32.00;;;;;;5012566;28;20385;-75
2021/09/21 01:27:37;;;;;;;8.60;5.90;;;14.00;32.10;;;;;;5012500;28;20874;-76
2021/09/21 01:30:07;;;;;;;9.45;6.05;;;14.00;32.30;;;;;;5010670;28;20468;-77
2021/09/21 01:32:33;;;;;;;8.60;5.80;;;14.00;32.80;;;;;;4992710;28;20398;-78
2021/09/21 01:35:02;;;;;;;11.67;6.50;;;14.00;32.50;;;;;;4993143;28;20445;-77
2021/09/21 01:37:28;;;;;;;12.30;6.37;;;13.90;32.90;;;;;;4992597;28;20409;-77
2021/09/21 01:39:54;;;;;;;11.82;6.18;;;14.00;32.50;;;;;;4992870;28;20433;-77
2021/09/21 01:42:19;;;;;;;10.00;6.20;;;14.00;32.80;;;;;;4981247;28;20428;-77
2021/09/21 01:44:45;;;;;;;9.73;5.85;;;14.00;32.60;;;;;;4973500;28;20436;-76
2021/09/21 01:47:11;;;;;;;11.82;6.20;;;14.00;32.90;;;;;;4972290;28;20403;-76
2021/09/21 01:49:51;;;;;;;9.95;6.70;;;13.90;33.30;;;;;;4973491;28;20471;-76
2021/09/21 01:52:20;;;;;;;10.23;6.30;;;13.70;33.70;;;;;;4975641;28;20435;-76
2021/09/21 01:55:05;;;;;;;8.57;6.10;;;13.80;33.70;;;;;;4981169;28;20400;-77
2021/09/21 02:00:15;;;;;;;8.40;6.40;;;13.80;33.60;;;;;;4978254;28;20897;-76
2021/09/21 02:02:40;;;;;;;8.68;6.45;;;13.80;34.00;;;;;;4980956;28;20406;-76
2021/09/21 02:05:07;;;;;;;10.90;6.22;;;13.80;33.80;;;;;;4994527;28;20978;-76
2021/09/21 02:07:32;;;;;;;9.00;6.50;;;13.90;33.60;;;;;;4994128;28;20446;-78
2021/09/21 02:09:58;;;;;;;8.77;6.10;;;13.90;33.50;;;;;;4994593;28;20386;-77
2021/09/21 02:12:23;;;;;;;8.40;6.20;;;13.90;33.20;;;;;;4995706;28;20570;-78
2021/09/21 02:14:49;;;;;;;9.87;6.23;;;13.80;33.70;;;;;;4977871;28;20539;-77
2021/09/21 02:17:14;;;;;;;11.77;6.45;;;13.80;33.90;;;;;;4992398;28;20438;-77
2021/09/21 02:19:40;;;;;;;12.45;6.60;;;13.80;34.00;;;;;;4992222;28;20397;-76
2021/09/21 02:22:07;;;;;;;8.90;6.35;;;13.90;33.90;;;;;;5006177;28;20392;-76
2021/09/21 02:24:32;;;;;;;13.93;6.70;;;13.90;33.90;;;;;;4998387;28;20479;-74
2021/09/21 02:26:58;;;;;;;8.90;6.07;;;13.80;33.90;;;;;;4986159;28;20437;-74
2021/09/21 02:29:25;;;;;;;9.10;6.25;;;13.80;34.10;;;;;;4989954;28;20437;-74
2021/09/21 02:31:51;;;;;;;13.18;7.00;;;13.80;34.20;;;;;;4984839;28;20415;-75
2021/09/21 02:34:16;;;;;;;9.60;6.37;;;13.80;34.10;;;;;;4971763;28;20400;-75
2021/09/21 02:36:42;;;;;;;9.93;6.83;;;13.70;34.30;;;;;;4972044;28;20458;-74
2021/09/21 02:39:12;;;;;;;10.82;6.32;;;13.70;34.30;;;;;;4974152;28;20408;-75
2021/09/21 02:41:38;;;;;;;11.00;6.93;;;13.60;34.60;;;;;;4987110;28;20471;-75
2021/09/21 02:44:04;;;;;;;10.63;7.13;;;13.60;34.90;;;;;;4972019;28;20395;-76
2021/09/21 02:46:29;;;;;;;10.32;6.50;;;13.60;34.80;;;;;;4972959;28;20403;-77
2021/09/21 02:48:55;;;;;;;10.25;6.50;;;13.60;35.20;;;;;;4973154;28;20907;-75
2021/09/21 02:51:21;;;;;;;9.67;7.07;;;13.60;35.20;;;;;;4991938;28;20442;-76
2021/09/21 02:53:46;;;;;;;7.72;6.40;;;13.70;35.00;;;;;;4992833;28;20855;-75
2021/09/21 02:56:14;;;;;;;11.83;6.47;;;13.60;35.10;;;;;;4992550;28;20796;-75
2021/09/21 02:58:43;;;;;;;10.18;7.20;;;13.60;35.10;;;;;;4991552;28;20398;-75
2021/09/21 03:01:09;;;;;;;13.00;7.22;;;13.60;35.30;;;;;;4981941;28;20419;-75
2021/09/21 03:03:44;;;;;;;10.43;7.28;;;13.60;35.70;;;;;;4974713;28;20403;-74
2021/09/21 03:06:19;;;;;;;10.27;6.50;;;13.60;35.70;;;;;;4986719;28;20392;-74
2021/09/21 03:08:44;;;;;;;11.18;7.47;;;13.60;35.70;;;;;;4982045;28;20431;-76
2021/09/21 03:19:07;;;;;;;9.95;7.22;;;12.90;40.00;;;;;;4954266;28;20437;-74
2021/09/21 03:21:32;;;;;;;10.07;6.80;;;12.90;40.50;;;;;;4989020;28;20400;-75
2021/09/21 03:23:58;;;;;;;10.47;7.07;;;12.80;40.00;;;;;;5014896;28;20495;-74
2021/09/21 03:26:23;;;;;;;11.93;7.30;;;12.80;39.80;;;;;;4997752;28;20406;-75
2021/09/21 03:28:50;;;;;;;10.50;7.17;;;12.90;38.90;;;;;;4994870;28;20389;-75
2021/09/21 03:31:16;;;;;;;11.55;7.00;;;13.10;38.60;;;;;;4995095;28;20386;-74
2021/09/21 03:33:42;;;;;;;9.65;7.05;;;13.20;38.30;;;;;;4995115;28;20457;-74
2021/09/21 03:36:07;;;;;;;13.17;7.77;;;13.10;38.30;;;;;;4995113;28;20442;-75
2021/09/21 03:38:33;;;;;;;10.50;7.73;;;13.10;38.40;;;;;;4976782;28;20400;-76
2021/09/21 03:40:58;;;;;;;12.10;7.77;;;13.10;38.80;;;;;;4975616;28;20387;-76
2021/09/21 03:43:24;;;;;;;12.63;7.77;;;13.10;38.90;;;;;;4994036;28;20421;-75
2021/09/21 03:45:50;;;;;;;10.38;8.00;;;13.10;39.20;;;;;;4995342;28;20840;-76
2021/09/21 03:48:15;;;;;;;12.07;7.95;;;13.00;39.50;;;;;;4996156;28;20390;-75
2021/09/21 03:50:41;;;;;;;12.52;8.00;;;13.10;39.50;;;;;;4977611;28;20499;-73
2021/09/21 03:53:06;;;;;;;11.30;8.43;;;13.00;40.60;;;;;;4983101;28;20410;-77
2021/09/21 03:55:32;;;;;;;12.33;8.47;;;13.10;40.40;;;;;;5004463;28;20560;-77
2021/09/21 03:57:57;;;;;;;13.00;8.50;;;13.10;40.00;;;;;;5001414;28;20763;-78
2021/09/21 04:00:23;;;;;;;13.30;8.20;;;13.00;40.90;;;;;;4988878;28;20400;-78
2021/09/21 04:02:49;;;;;;;10.43;7.63;;;13.10;40.70;;;;;;5001074;28;20402;-77
2021/09/21 04:05:14;;;;;;;13.27;8.40;;;13.10;40.30;;;;;;4996479;28;20394;-77
2021/09/21 04:07:40;;;;;;;12.70;8.27;;;13.20;39.80;;;;;;4994388;28;20776;-79
2021/09/21 04:10:06;;;;;;;16.37;9.20;;;13.10;40.00;;;;;;4996110;28;20508;-78
2021/09/21 04:12:35;;;;;;;14.52;8.60;;;13.10;39.70;;;;;;4995312;28;20386;-79
2021/09/21 04:15:01;;;;;;;18.40;9.25;;;13.10;39.80;;;;;;5015492;28;20388;-78
2021/09/21 04:17:26;;;;;;;12.68;8.77;;;13.00;40.10;;;;;;5014817;28;20400;-78
2021/09/21 04:19:52;;;;;;;13.60;8.77;;;13.00;40.40;;;;;;5015246;28;20416;-79
2021/09/21 04:22:17;;;;;;;12.80;8.88;;;13.00;40.50;;;;;;4990447;28;20411;-77
2021/09/21 04:24:44;;;;;;;16.63;8.98;;;12.80;41.60;;;;;;4980555;28;20412;-77
2021/09/21 04:27:09;;;;;;;19.88;8.95;;;12.70;42.80;;;;;;4982475;28;20742;-77
2021/09/21 04:29:35;;;;;;;14.87;9.23;;;12.70;43.50;;;;;;4983702;28;20403;-78
2021/09/21 04:32:02;;;;;;;14.60;8.40;;;12.80;42.40;;;;;;5001314;28;20462;-79
2021/09/21 04:34:30;;;;;;;18.23;9.07;;;12.80;42.40;;;;;;5002567;28;20854;-79
2021/09/21 04:36:57;;;;;;;11.57;8.10;;;12.80;42.40;;;;;;4998232;28;20413;-78
2021/09/21 04:39:23;;;;;;;13.80;8.20;;;12.90;41.60;;;;;;5001264;28;20405;-79
2021/09/21 04:41:49;;;;;;;14.00;8.40;;;12.80;42.50;;;;;;4997434;28;20398;-78
2021/09/21 04:44:14;;;;;;;16.52;9.32;;;12.90;42.40;;;;;;5009243;28;20402;-78
2021/09/21 04:46:40;;;;;;;16.77;8.97;;;13.00;40.90;;;;;;5003323;28;20394;-79
2021/09/21 04:49:08;;;;;;;14.47;8.73;;;13.00;40.80;;;;;;5006105;28;20721;-77
2021/09/21 04:51:33;;;;;;;14.77;9.63;;;13.00;41.00;;;;;;4997105;28;20497;-76
2021/09/21 04:53:59;;;;;;;16.13;9.55;;;12.90;41.60;;;;;;4994765;28;20398;-78
2021/09/21 04:56:25;;;;;;;14.88;9.77;;;12.90;42.20;;;;;;4989136;28;20523;-78
2021/09/21 04:58:51;;;;;;;13.30;9.02;;;12.90;42.70;;;;;;4995671;28;20396;-76
2021/09/21 05:01:16;;;;;;;12.60;9.00;;;12.80;43.80;;;;;;4982570;28;20390;-76
2021/09/21 05:03:42;;;;;;;15.18;9.23;;;12.60;44.60;;;;;;4981544;28;20933;-77
2021/09/21 05:06:07;;;;;;;13.30;8.90;;;12.70;44.50;;;;;;4981416;28;20978;-77
2021/09/21 05:08:33;;;;;;;15.43;9.30;;;12.80;45.10;;;;;;4980153;28;20403;-77
2021/09/21 05:10:58;;;;;;;16.33;9.43;;;12.80;44.30;;;;;;4981726;28;20452;-76
2021/09/21 05:13:24;;;;;;;15.20;8.90;;;12.60;45.40;;;;;;4994077;28;20398;-78
2021/09/21 05:15:49;;;;;;;14.27;9.47;;;12.60;45.40;;;;;;4994485;28;21115;-75
2021/09/21 05:18:15;;;;;;;13.73;9.70;;;12.70;45.10;;;;;;4991979;28;20394;-78
2021/09/21 05:20:41;;;;;;;15.50;9.40;;;12.80;45.20;;;;;;4990403;28;20432;-77
2021/09/21 05:23:06;;;;;;;14.73;8.80;;;12.70;45.70;;;;;;4989518;28;20457;-77
2021/09/21 05:25:32;;;;;;;13.90;9.13;;;12.50;46.30;;;;;;4992630;28;20768;-77
2021/09/21 05:27:57;;;;;;;13.10;8.93;;;12.40;47.90;;;;;;4980156;28;20496;-77
2021/09/21 05:30:23;;;;;;;67.65;40.35;;;12.30;48.60;;;;;;4985296;28;20415;-76
2021/09/21 05:32:49;;;;;;;105.33;63.43;;;12.20;50.20;;;;;;4991625;28;20402;-77
2021/09/21 05:35:14;;;;;;;41.47;25.10;;;12.20;50.30;;;;;;4994217;28;20399;-77
2021/09/21 05:37:40;;;;;;;41.80;24.97;;;12.30;49.70;;;;;;4991091;28;20410;-76
2021/09/21 05:40:07;;;;;;;130.23;78.90;;;12.20;49.20;;;;;;4982104;28;20401;-76
2021/09/21 05:42:36;;;;;;;20.85;14.35;;;12.00;53.40;;;;;;4982844;28;20541;-79
2021/09/21 05:45:03;;;;;;;71.25;42.97;;;11.90;53.50;;;;;;4978122;28;20428;-78
2021/09/21 05:47:28;;;;;;;46.95;29.17;;;11.90;53.10;;;;;;4979563;28;20898;-78
2021/09/21 05:49:54;;;;;;;72.83;44.13;;;11.80;55.00;;;;;;4989464;28;20421;-77
2021/09/21 05:52:19;;;;;;;14.60;10.00;;;11.70;55.10;;;;;;4981459;28;20412;-76
2021/09/21 05:54:45;;;;;;;45.90;24.93;;;11.90;53.60;;;;;;4990779;28;20412;-77
2021/09/21 05:57:10;;;;;;;32.33;18.05;;;11.90;54.10;;;;;;4981729;28;20418;-75
2021/09/21 05:59:36;;;;;;;22.25;10.90;;;12.00;53.00;;;;;;4985836;28;20755;-78
2021/09/21 06:02:02;;;;;;;35.55;20.58;;;12.10;51.60;;;;;;4993359;28;20829;-77
2021/09/21 06:04:27;;;;;;;18.15;10.07;;;12.10;51.30;;;;;;4991714;28;20487;-79
2021/09/21 06:06:53;;;;;;;15.50;9.40;;;12.10;50.40;;;;;;4987091;28;20408;-79
2021/09/21 06:09:18;;;;;;;15.17;9.30;;;12.30;48.90;;;;;;4984112;28;20515;-79
2021/09/21 06:11:44;;;;;;;19.77;10.30;;;12.50;46.10;;;;;;4987098;28;20410;-78
2021/09/21 06:14:09;;;;;;;16.40;9.67;;;12.50;45.40;;;;;;4999990;28;20411;-81
2021/09/21 06:16:35;;;;;;;16.77;9.80;;;12.40;45.30;;;;;;4997826;28;20563;-78
2021/09/21 06:19:00;;;;;;;17.88;10.57;;;12.40;45.10;;;;;;4980392;28;20467;-81
2021/09/21 06:21:27;;;;;;;15.90;10.32;;;12.50;45.30;;;;;;5001414;28;20385;-79
2021/09/21 06:23:54;;;;;;;16.77;10.05;;;12.50;45.00;;;;;;5024850;28;20443;-81
2021/09/21 06:26:20;;;;;;;20.15;11.10;;;12.50;45.00;;;;;;5018240;28;20430;-80
2021/09/21 06:28:45;;;;;;;18.03;10.60;;;12.50;45.40;;;;;;4990013;28;20403;-82
2021/09/21 06:31:11;;;;;;;18.87;10.73;;;12.30;46.30;;;;;;4989016;28;20487;-81
2021/09/21 06:33:36;;;;;;;17.10;10.20;;;12.30;47.40;;;;;;4988491;28;20445;-80
2021/09/21 06:36:02;;;;;;;18.67;11.35;;;12.30;47.30;;;;;;4987794;28;20492;-80
2021/09/21 06:38:28;;;;;;;19.60;10.60;;;12.20;47.90;;;;;;4992280;28;20399;-76
2021/09/21 06:40:54;;;;;;;15.33;8.83;;;12.50;45.00;;;;;;4994576;28;20411;-76
2021/09/21 06:43:19;;;;;;;18.50;10.20;;;12.70;41.80;;;;;;4975067;28;20400;-77
2021/09/21 06:45:45;;;;;;;16.35;9.00;;;12.80;40.70;;;;;;4975455;28;20400;-77
2021/09/21 06:48:11;;;;;;;19.73;9.43;;;12.90;38.30;;;;;;4982660;28;20392;-77
2021/09/21 06:50:37;;;;;;;16.88;9.60;;;12.80;38.10;;;;;;4985922;28;20398;-75
2021/09/21 06:53:02;;;;;;;16.37;9.37;;;12.80;39.40;;;;;;4992818;28;20409;-76
2021/09/21 06:55:28;;;;;;;13.50;9.07;;;12.80;40.20;;;;;;4993418;28;20418;-75
2021/09/21 06:57:56;;;;;;;10.75;8.63;;;12.80;39.30;;;;;;4996918;28;20394;-77
2021/09/21 07:00:22;;;;;;;13.00;8.60;;;12.80;38.80;;;;;;4994212;28;20390;-76
2021/09/21 07:02:51;;;;;;;17.52;9.80;;;12.90;38.40;;;;;;4994116;28;20768;-76
2021/09/21 07:05:17;;;;;;;17.00;9.00;;;13.00;37.50;;;;;;4990235;28;20812;-76
2021/09/21 07:07:47;;;;;;;12.68;8.48;;;12.90;38.10;;;;;;4991300;28;20522;-76
2021/09/21 07:10:14;;;;;;;21.80;10.18;;;12.80;38.60;;;;;;4992433;28;20872;-77
2021/09/21 07:12:41;;;;;;;16.40;9.40;;;13.00;38.00;;;;;;4994801;28;20765;-77
2021/09/21 07:15:07;;;;;;;15.88;8.35;;;13.00;37.90;;;;;;4990389;28;20428;-77
2021/09/21 07:17:33;;;;;;;15.00;7.70;;;13.30;36.20;;;;;;4979758;28;20422;-77
2021/09/21 07:19:58;;;;;;;14.57;8.30;;;13.40;35.50;;;;;;4990795;28;20410;-76
2021/09/21 07:22:24;;;;;;;13.57;8.00;;;13.40;35.60;;;;;;4991174;28;21208;-77
2021/09/21 07:24:50;;;;;;;13.23;7.45;;;13.40;35.40;;;;;;5004807;28;20397;-80
2021/09/21 07:27:16;;;;;;;17.00;7.38;;;13.50;35.50;;;;;;5001104;28;20407;-80
2021/09/21 07:29:42;;;;;;;10.75;7.25;;;13.60;34.60;;;;;;4992154;28;20397;-78
2021/09/21 07:32:08;;;;;;;10.77;7.20;;;13.80;34.30;;;;;;5002960;28;20423;-79
2021/09/21 07:34:34;;;;;;;12.05;6.90;;;13.90;33.20;;;;;;5008086;28;20425;-80
2021/09/21 07:37:00;;;;;;;13.63;7.10;;;14.10;33.00;;;;;;4989399;28;20489;-78
2021/09/21 07:39:25;;;;;;;12.23;6.45;;;14.30;32.10;;;;;;4988906;28;20388;-83
2021/09/21 07:44:21;;;;;;;9.57;6.17;;;14.60;29.90;;;;;;4984711;28;20446;-77
2021/09/21 07:46:48;;;;;;;11.00;6.43;;;14.80;29.90;;;;;;4973804;28;20400;-78
2021/09/21 07:49:13;;;;;;;9.00;6.87;;;14.90;29.30;;;;;;4975751;28;20384;-77
2021/09/21 07:51:39;;;;;;;9.60;6.40;;;15.00;28.90;;;;;;4974954;28;20385;-76
2021/09/21 07:54:07;;;;;;;8.83;5.30;;;15.10;27.70;;;;;;4975815;28;20392;-76
2021/09/21 07:56:33;;;;;;;6.30;5.22;;;15.30;27.20;;;;;;4958911;28;20486;-78
2021/09/21 07:58:58;;;;;;;8.23;5.53;;;15.50;25.90;;;;;;4957539;28;20950;-79
2021/09/21 08:01:24;;;;;;;9.63;4.93;;;15.50;25.60;;;;;;4951135;28;20395;-77
2021/09/21 08:03:49;;;;;;;6.60;4.90;;;15.60;24.80;;;;;;4952816;29;20398;-77
2021/09/21 08:06:15;;;;;;;7.63;4.70;;;15.90;23.30;;;;;;4938220;29;20464;-78
2021/09/21 08:08:42;;;;;;;5.53;4.20;;;15.90;23.20;;;;;;4936848;29;20411;-77
2021/09/21 08:11:10;;;;;;;7.45;4.18;;;15.90;22.00;;;;;;4949443;29;20512;-78
2021/09/21 08:13:35;;;;;;;5.60;3.90;;;15.90;21.60;;;;;;4952611;28;20551;-77
2021/09/21 08:16:01;;;;;;;6.95;4.32;;;15.90;21.30;;;;;;4954156;28;20497;-76
2021/09/21 08:18:27;;;;;;;5.60;4.68;;;16.10;21.60;;;;;;4955580;28;20402;-75
2021/09/21 08:20:52;;;;;;;8.30;4.40;;;16.10;21.50;;;;;;4965019;28;20437;-76
2021/09/21 08:23:18;;;;;;;6.27;3.70;;;16.00;21.50;;;;;;4972361;28;20394;-77
2021/09/21 08:25:44;;;;;;;5.70;3.97;;;16.00;21.50;;;;;;4953979;28;20410;-77
2021/09/21 08:28:09;;;;;;;6.70;4.07;;;16.10;21.20;;;;;;4965112;28;20403;-77
2021/09/21 08:30:35;;;;;;;4.90;4.00;;;16.40;20.20;;;;;;4965050;28;20972;-78
2021/09/21 08:33:01;;;;;;;4.80;3.80;;;16.60;18.50;;;;;;4946498;29;20407;-78
2021/09/21 08:35:27;;;;;;;5.10;3.57;;;16.80;17.70;;;;;;4943660;29;20434;-77
2021/09/21 08:37:53;;;;;;;3.50;3.20;;;16.90;17.80;;;;;;4977211;28;20402;-78
2021/09/21 08:40:18;;;;;;;5.70;3.43;;;16.90;17.70;;;;;;4970647;28;20417;-78
2021/09/21 08:42:44;;;;;;;6.43;3.80;;;17.10;17.10;;;;;;4965017;28;20409;-79
2021/09/21 08:45:11;;;;;;;3.93;3.10;;;17.20;17.10;;;;;;4960130;28;20572;-78
2021/09/21 08:47:38;;;;;;;6.97;3.30;;;17.30;16.20;;;;;;4960541;28;20405;-78
2021/09/21 08:50:06;;;;;;;5.50;3.70;;;17.40;15.70;;;;;;4944720;28;20776;-78
2021/09/21 08:52:32;;;;;;;4.43;3.30;;;17.50;15.80;;;;;;4947709;29;20414;-77
2021/09/21 08:54:58;;;;;;;5.15;3.35;;;17.70;14.70;;;;;;4939416;29;20400;-78
2021/09/21 08:57:25;;;;;;;4.45;3.78;;;17.70;15.20;;;;;;4944707;29;20427;-77
2021/09/21 08:59:52;;;;;;;6.55;3.70;;;17.80;15.00;;;;;;4955416;29;20406;-76
2021/09/21 09:02:18;;;;;;;6.00;3.00;;;17.90;14.80;;;;;;4958197;28;20444;-77
2021/09/21 09:04:56;;;;;;;5.00;3.80;;;17.80;15.10;;;;;;4959793;28;20846;-76
2021/09/21 09:07:21;;;;;;;6.88;3.60;;;18.00;16.10;;;;;;4958277;28;20950;-77
2021/09/21 09:09:47;;;;;;;8.87;3.53;;;18.10;14.30;;;;;;4943162;28;20470;-77
2021/09/21 09:12:12;;;;;;;4.17;3.10;;;18.10;13.00;;;;;;4958922;28;20408;-76
2021/09/21 09:14:40;;;;;;;6.10;3.50;;;17.90;12.70;;;;;;4956690;29;20420;-76
2021/09/21 09:17:12;;;;;;;7.55;4.20;;;17.70;13.50;;;;;;4955412;28;20418;-77
2021/09/21 09:19:40;;;;;;;7.45;4.10;;;17.80;14.30;;;;;;4948433;28;20419;-77
2021/09/21 09:22:11;;;;;;;4.90;3.80;;;18.10;15.20;;;;;;4945382;29;20468;-77
2021/09/21 09:25:05;;;;;;;5.65;4.18;;;18.30;16.80;;;;;;4938028;29;20415;-78
2021/09/21 09:27:44;;;;;;;4.53;3.80;;;18.50;15.70;;;;;;4947038;28;20438;-75
2021/09/21 09:30:12;;;;;;;8.00;4.10;;;18.30;14.60;;;;;;4957492;28;20406;-77
2021/09/21 09:32:46;;;;;;;8.05;3.90;;;18.20;14.90;;;;;;4961408;28;20767;-77
2021/09/21 09:35:25;;;;;;;6.30;4.50;;;17.80;15.90;;;;;;4953188;29;20398;-78
2021/09/21 09:37:51;;;;;;;9.32;4.85;;;17.70;17.60;;;;;;4955859;28;20963;-77
2021/09/21 09:40:17;;;;;;;12.35;4.90;;;17.70;16.70;;;;;;4956050;28;20382;-77
2021/09/21 09:42:44;;;;;;;9.57;4.90;;;17.70;18.50;;;;;;4954507;29;20908;-77
2021/09/21 09:45:11;;;;;;;7.07;4.20;;;17.80;16.80;;;;;;4941661;28;20756;-76
2021/09/21 09:47:48;;;;;;;7.03;4.15;;;17.90;16.80;;;;;;4953689;29;20412;-76
2021/09/21 09:50:16;;;;;;;7.80;4.80;;;17.90;15.20;;;;;;4955072;28;20406;-77
2021/09/21 09:52:41;;;;;;;7.63;4.70;;;18.10;16.30;;;;;;4955580;28;20398;-78
2021/09/21 09:55:08;;;;;;;10.80;4.60;;;18.20;16.90;;;;;;4950794;28;20498;-77
2021/09/21 09:57:39;;;;;;;7.53;4.90;;;18.20;16.50;;;;;;4979215;28;20446;-75
2021/09/21 10:00:05;;;;;;;9.13;5.38;;;18.10;16.00;;;;;;4958230;29;20477;-76
2021/09/21 10:02:31;;;;;;;7.18;4.80;;;18.00;17.10;;;;;;4950068;28;20765;-76
2021/09/21 10:04:56;;;;;;;6.03;4.73;;;18.00;17.50;;;;;;4964720;28;20396;-78
2021/09/21 10:07:23;;;;;;;10.60;4.60;;;18.20;17.20;;;;;;4971159;28;20408;-76
2021/09/21 10:09:50;;;;;;;8.40;4.63;;;18.10;16.90;;;;;;4957915;28;20419;-79
2021/09/21 10:12:16;;;;;;;8.55;4.72;;;18.30;16.60;;;;;;4966206;28;20422;-77
2021/09/21 10:14:43;;;;;;;8.13;4.60;;;18.10;15.90;;;;;;4979441;28;20423;-77
2021/09/21 10:17:08;;;;;;;6.13;4.45;;;18.00;15.40;;;;;;4939649;28;20417;-76
2021/09/21 10:19:37;;;;;;;6.00;4.30;;;18.10;16.20;;;;;;4938032;29;20388;-76
2021/09/21 10:22:03;;;;;;;8.05;5.13;;;18.30;16.60;;;;;;4937316;28;20812;-76
2021/09/21 10:24:48;;;;;;;8.20;5.60;;;18.30;16.50;;;;;;4937649;29;20395;-77
2021/09/21 10:27:18;;;;;;;7.67;4.93;;;18.30;16.80;;;;;;4940571;29;20423;-75
2021/09/21 10:29:44;;;;;;;8.80;5.07;;;18.50;16.60;;;;;;4953669;29;20429;-77
2021/09/21 10:32:16;;;;;;;13.67;5.73;;;18.60;16.10;;;;;;4970901;28;20388;-75
2021/09/21 10:34:47;;;;;;;10.68;5.22;;;18.60;16.70;;;;;;4955161;28;20409;-75
2021/09/21 10:37:15;;;;;;;11.20;5.15;;;18.80;16.20;;;;;;4956567;28;20450;-75
2021/09/21 10:39:40;;;;;;;8.05;4.97;;;19.00;16.20;;;;;;4955876;29;20394;-77
2021/09/21 10:42:09;;;;;;;9.25;4.60;;;19.30;15.80;;;;;;4954819;28;20848;-76
2021/09/21 10:44:36;;;;;;;8.90;4.90;;;19.40;14.30;;;;;;4953671;29;20455;-76
2021/09/21 10:47:07;;;;;;;5.72;4.53;;;19.20;13.80;;;;;;4955425;28;20409;-77
2021/09/21 10:49:40;;;;;;;5.80;4.70;;;18.90;14.00;;;;;;4954992;28;20389;-75
2021/09/21 10:52:10;;;;;;;8.57;4.60;;;18.80;14.80;;;;;;4954160;28;20402;-74
2021/09/21 10:54:40;;;;;;;6.25;4.68;;;18.70;14.80;;;;;;4959244;28;20403;-75
2021/09/21 10:57:16;;;;;;;5.97;4.00;;;18.80;15.00;;;;;;4975357;28;20443;-77
2021/09/21 10:59:55;;;;;;;8.15;4.38;;;18.70;14.80;;;;;;4973277;28;20897;-77
2021/09/21 11:02:23;;;;;;;6.45;4.30;;;18.60;14.40;;;;;;4953606;28;20483;-78
2021/09/21 11:04:49;;;;;;;9.85;4.20;;;18.40;15.20;;;;;;4932625;29;20750;-77
2021/09/21 11:07:15;;;;;;;7.38;4.40;;;18.40;14.90;;;;;;4932484;29;20395;-76
2021/09/21 11:09:48;;;;;;;5.63;4.50;;;18.50;14.80;;;;;;4938270;29;20409;-77
2021/09/21 11:12:13;;;;;;;9.65;4.20;;;18.60;15.00;;;;;;4950881;28;20808;-77
2021/09/21 11:14:42;;;;;;;11.48;4.70;;;19.00;15.00;;;;;;4951159;29;20397;-77
2021/09/21 11:17:10;;;;;;;6.45;4.30;;;19.40;14.70;;;;;;4939598;29;20421;-78
2021/09/21 11:19:37;;;;;;;6.13;3.80;;;19.50;14.00;;;;;;4958336;29;20409;-77
2021/09/21 11:22:06;;;;;;;5.65;3.60;;;19.60;13.20;;;;;;4943357;28;20399;-76
2021/09/21 11:24:33;;;;;;;6.25;3.60;;;19.70;13.20;;;;;;4947755;29;20397;-77
2021/09/21 11:27:01;;;;;;;7.90;3.35;;;19.70;12.80;;;;;;4945146;28;20400;-76
2021/09/21 11:29:28;;;;;;;4.55;3.40;;;20.10;11.50;;;;;;4943335;29;20823;-75
2021/09/21 11:31:54;;;;;;;6.70;3.70;;;19.90;11.20;;;;;;4952553;28;20410;-76
2021/09/21 11:34:21;;;;;;;3.30;3.00;;;20.00;11.00;;;;;;4969837;28;20760;-77
2021/09/21 11:36:50;;;;;;;7.53;4.22;;;20.10;10.90;;;;;;4956843;28;20406;-77
2021/09/21 11:39:17;;;;;;;7.47;3.65;;;20.20;11.20;;;;;;4957236;28;20436;-77
2021/09/21 11:41:43;;;;;;;4.80;3.20;;;20.10;11.10;;;;;;4956516;28;20408;-75
2021/09/21 11:44:08;;;;;;;4.47;2.95;;;20.20;11.70;;;;;;4945612;28;20479;-77
2021/09/21 11:46:34;;;;;;;3.57;3.00;;;20.50;9.90;;;;;;4937155;29;20411;-76
2021/09/21 11:49:01;;;;;;;6.93;2.80;;;20.50;9.20;;;;;;4956406;29;21029;-76
2021/09/21 11:51:29;;;;;;;2.72;2.53;;;20.70;9.00;;;;;;4943079;28;20883;-77
2021/09/21 11:53:55;;;;;;;5.20;2.60;;;20.90;9.20;;;;;;4937008;29;20407;-76
2021/09/21 11:56:21;;;;;;;2.53;2.20;;;20.70;9.30;;;;;;4950452;28;20495;-77
2021/09/21 11:58:47;;;;;;;3.35;2.38;;;20.70;9.50;;;;;;4965616;28;20408;-76
2021/09/21 12:01:13;;;;;;;4.63;2.50;;;20.90;7.90;;;;;;4956266;28;20385;-75
2021/09/21 12:03:39;;;;;;;3.63;2.13;;;21.10;8.70;;;;;;4955586;28;20485;-78
2021/09/21 12:06:08;;;;;;;6.10;2.13;;;21.10;9.10;;;;;;4950072;28;20905;-78
2021/09/21 12:08:36;;;;;;;5.50;2.20;;;21.30;8.00;;;;;;4940530;28;20408;-76
2021/09/21 12:11:06;;;;;;;6.10;3.10;;;21.20;8.50;;;;;;4934881;29;20404;-76
2021/09/21 12:13:32;;;;;;;7.18;2.60;;;21.20;7.80;;;;;;4959823;28;20964;-76
2021/09/21 12:16:00;;;;;;;4.38;2.05;;;21.30;7.80;;;;;;4955787;28;20532;-77
2021/09/21 12:18:28;;;;;;;2.90;2.45;;;21.40;7.00;;;;;;4940921;28;20416;-79
2021/09/21 12:21:00;;;;;;;4.10;2.20;;;21.60;7.40;;;;;;4937450;29;20772;-77
2021/09/21 12:23:28;;;;;;;2.27;2.07;;;21.40;6.80;;;;;;4952663;29;20941;-78
2021/09/21 12:25:55;;;;;;;4.38;2.20;;;21.40;6.80;;;;;;4955448;28;20394;-77
2021/09/21 12:28:49;;;;;;;2.50;2.30;;;21.20;7.20;;;;;;4940003;28;20893;-76
2021/09/21 12:31:25;;;;;;;3.00;2.50;;;21.00;8.20;;;;;;4981137;28;20503;-76
2021/09/21 12:33:52;;;;;;;2.28;2.17;;;21.10;7.70;;;;;;4941384;28;20407;-75
2021/09/21 12:36:24;;;;;;;3.40;2.10;;;21.20;7.80;;;;;;4944835;29;20430;-78
2021/09/21 12:39:10;;;;;;;2.33;2.05;;;21.30;8.50;;;;;;4963291;29;20497;-77
2021/09/21 12:41:39;;;;;;;8.32;2.17;;;21.30;7.70;;;;;;4951387;28;20425;-77
2021/09/21 12:44:08;;;;;;;3.33;2.17;;;21.40;9.50;;;;;;4950793;28;20420;-77
2021/09/21 12:46:34;;;;;;;6.47;2.55;;;21.70;8.50;;;;;;4952244;28;20409;-77
2021/09/21 12:49:01;;;;;;;2.50;2.20;;;21.80;7.70;;;;;;4955559;28;20409;-76
2021/09/21 12:51:36;;;;;;;2.20;2.00;;;21.50;6.10;;;;;;4964257;28;20402;-76
2021/09/21 12:54:03;;;;;;;4.15;2.53;;;20.80;7.20;;;;;;4968470;28;20455;-76
2021/09/21 12:56:33;;;;;;;4.00;2.40;;;20.50;9.00;;;;;;4950889;28;20789;-75